PUA1502 SAZB-SUMU
Flight info
| Callsign | PUA1502 |
|---|---|
| Flight time | 1h 3m |
| Altitude | 33000 |
| Route | PULAS1C PULAS UW22 EZE UM424 TOKAM |
| Aircraft | A321/M-SDE3FGHIRWY/LB1 |
Departure
| Time | 2026-05-06 16:27 |
|---|---|
| Airport | Comandante Espora Airport (SAZB) |
Arrival
| Time | 2026-05-06 17:30 |
|---|---|
| Airport | Carrasco General Cesáreo L. Berisso International Airport (SUMU) |
| Time | Latitude | Longitude | Altitude | Speed | Heading |
|---|---|---|---|---|---|
| 2026-05-06 16:10 | -38.71642 | -62.16302 | 257 ft | 0 kts | 272° |
| 2026-05-06 16:18 | -38.71642 | -62.16301 | 257 ft | 2 kts | 272° |
| 2026-05-06 16:18 | -38.71643 | -62.16269 | 284 ft | 4 kts | 269° |
| 2026-05-06 16:19 | -38.71642 | -62.16234 | 257 ft | 4 kts | 269° |
| 2026-05-06 16:19 | -38.71643 | -62.16203 | 257 ft | 2 kts | 277° |
| 2026-05-06 16:19 | -38.71643 | -62.16201 | 257 ft | 2 kts | 277° |
| 2026-05-06 16:20 | -38.71644 | -62.16191 | 257 ft | 2 kts | 277° |
| 2026-05-06 16:21 | -38.71645 | -62.16176 | 257 ft | 2 kts | 277° |
| 2026-05-06 16:21 | -38.71647 | -62.16155 | 257 ft | 2 kts | 277° |
| 2026-05-06 16:21 | -38.71650 | -62.16130 | 257 ft | 3 kts | 277° |
| 2026-05-06 16:21 | -38.71652 | -62.16105 | 257 ft | 3 kts | 276° |
| 2026-05-06 16:22 | -38.71655 | -62.16082 | 257 ft | 3 kts | 296° |
| 2026-05-06 16:22 | -38.71665 | -62.16062 | 257 ft | 3 kts | 320° |
| 2026-05-06 16:22 | -38.71682 | -62.16050 | 257 ft | 1 kts | 341° |
| 2026-05-06 16:24 | -38.71679 | -62.16051 | 257 ft | 3 kts | 342° |
| 2026-05-06 16:25 | -38.71638 | -62.16032 | 257 ft | 11 kts | 44° |
| 2026-05-06 16:25 | -38.71588 | -62.15940 | 257 ft | 12 kts | 60° |
| 2026-05-06 16:25 | -38.71558 | -62.15865 | 258 ft | 7 kts | 67° |
| 2026-05-06 16:25 | -38.71550 | -62.15816 | 258 ft | 4 kts | 83° |
| 2026-05-06 16:26 | -38.71579 | -62.15765 | 258 ft | 14 kts | 161° |
| 2026-05-06 16:26 | -38.71741 | -62.15708 | 257 ft | 51 kts | 162° |
| 2026-05-06 16:26 | -38.72294 | -62.15504 | 258 ft | 112 kts | 164° |
| 2026-05-06 16:26 | -38.73201 | -62.15167 | 271 ft | 157 kts | 159° |
| 2026-05-06 16:27 | -38.74251 | -62.14832 | 912 ft | 151 kts | 157° |
| 2026-05-06 16:27 | -38.75099 | -62.14118 | 1369 ft | 144 kts | 110° |
| 2026-05-06 16:27 | -38.75265 | -62.12903 | 1997 ft | 138 kts | 78° |
| 2026-05-06 16:27 | -38.74935 | -62.11771 | 2604 ft | 136 kts | 58° |
| 2026-05-06 16:28 | -38.74468 | -62.10639 | 2964 ft | 154 kts | 59° |
| 2026-05-06 16:28 | -38.73948 | -62.09346 | 3269 ft | 171 kts | 59° |
| 2026-05-06 16:28 | -38.73386 | -62.07930 | 3579 ft | 185 kts | 58° |
| 2026-05-06 16:28 | -38.72732 | -62.06459 | 3884 ft | 193 kts | 45° |
| 2026-05-06 16:29 | -38.71669 | -62.05418 | 4192 ft | 196 kts | 27° |
| 2026-05-06 16:29 | -38.70467 | -62.04487 | 4507 ft | 207 kts | 27° |
| 2026-05-06 16:29 | -38.69204 | -62.03511 | 4800 ft | 216 kts | 27° |
| 2026-05-06 16:29 | -38.67918 | -62.02517 | 5072 ft | 224 kts | 27° |
| 2026-05-06 16:30 | -38.66535 | -62.01454 | 5415 ft | 238 kts | 27° |
| 2026-05-06 16:30 | -38.65565 | -62.00708 | 5722 ft | 244 kts | 27° |
| 2026-05-06 16:30 | -38.63582 | -61.99185 | 6326 ft | 258 kts | 26° |
| 2026-05-06 16:30 | -38.62013 | -61.97981 | 6756 ft | 266 kts | 27° |
| 2026-05-06 16:31 | -38.60407 | -61.96747 | 7289 ft | 271 kts | 26° |
| 2026-05-06 16:31 | -38.58785 | -61.95497 | 7839 ft | 274 kts | 26° |
| 2026-05-06 16:31 | -38.57142 | -61.94231 | 8379 ft | 277 kts | 25° |
| 2026-05-06 16:31 | -38.55485 | -61.92956 | 8941 ft | 279 kts | 25° |
| 2026-05-06 16:32 | -38.53815 | -61.91669 | 9513 ft | 281 kts | 24° |
| 2026-05-06 16:32 | -38.52128 | -61.90371 | 10050 ft | 287 kts | 24° |
| 2026-05-06 16:32 | -38.50378 | -61.89034 | 10614 ft | 298 kts | 24° |
| 2026-05-06 16:32 | -38.48560 | -61.87649 | 11203 ft | 310 kts | 24° |
| 2026-05-06 16:33 | -38.46672 | -61.86207 | 11791 ft | 322 kts | 24° |
| 2026-05-06 16:33 | -38.44722 | -61.84719 | 12404 ft | 331 kts | 24° |
| 2026-05-06 16:33 | -38.42735 | -61.83198 | 13026 ft | 336 kts | 24° |
| 2026-05-06 16:34 | -38.38664 | -61.80082 | 14214 ft | 346 kts | 24° |
| 2026-05-06 16:34 | -38.36589 | -61.78493 | 14788 ft | 350 kts | 24° |
| 2026-05-06 16:34 | -38.34498 | -61.76891 | 15435 ft | 351 kts | 23° |
| 2026-05-06 16:34 | -38.32427 | -61.75307 | 16114 ft | 352 kts | 23° |
| 2026-05-06 16:35 | -38.30328 | -61.73708 | 16803 ft | 351 kts | 22° |
| 2026-05-06 16:35 | -38.28243 | -61.72120 | 17575 ft | 348 kts | 22° |
| 2026-05-06 16:35 | -38.26176 | -61.70542 | 18327 ft | 345 kts | 22° |
| 2026-05-06 16:35 | -38.24134 | -61.68983 | 19018 ft | 341 kts | 22° |
| 2026-05-06 16:36 | -38.22111 | -61.67437 | 19729 ft | 336 kts | 21° |
| 2026-05-06 16:36 | -38.20123 | -61.65919 | 20456 ft | 330 kts | 21° |
| 2026-05-06 16:36 | -38.18138 | -61.64414 | 20861 ft | 338 kts | 21° |
| 2026-05-06 16:36 | -38.16112 | -61.62889 | 21407 ft | 338 kts | 21° |
| 2026-05-06 16:37 | -38.14090 | -61.61364 | 22023 ft | 338 kts | 21° |
| 2026-05-06 16:37 | -38.12067 | -61.59833 | 22583 ft | 340 kts | 21° |
| 2026-05-06 16:37 | -38.09994 | -61.58273 | 22711 ft | 354 kts | 21° |
| 2026-05-06 16:37 | -38.07829 | -61.56650 | 22851 ft | 368 kts | 21° |
| 2026-05-06 16:38 | -38.05590 | -61.54966 | 23010 ft | 380 kts | 22° |
| 2026-05-06 16:38 | -38.03321 | -61.53245 | 23551 ft | 380 kts | 22° |
| 2026-05-06 16:38 | -38.01063 | -61.51528 | 24129 ft | 376 kts | 22° |
| 2026-05-06 16:38 | -37.98882 | -61.49864 | 24864 ft | 366 kts | 22° |
| 2026-05-06 16:39 | -37.96744 | -61.48219 | 25672 ft | 355 kts | 22° |
| 2026-05-06 16:39 | -37.94664 | -61.46507 | 26066 ft | 361 kts | 24° |
| 2026-05-06 16:39 | -37.92576 | -61.44684 | 26317 ft | 368 kts | 26° |
| 2026-05-06 16:39 | -37.90470 | -61.42788 | 26565 ft | 375 kts | 26° |
| 2026-05-06 16:40 | -37.88331 | -61.40847 | 26821 ft | 381 kts | 26° |
| 2026-05-06 16:40 | -37.86155 | -61.38880 | 27071 ft | 387 kts | 26° |
| 2026-05-06 16:40 | -37.83946 | -61.36897 | 27324 ft | 392 kts | 26° |
| 2026-05-06 16:40 | -37.81698 | -61.34898 | 27586 ft | 397 kts | 26° |
| 2026-05-06 16:41 | -37.79416 | -61.32889 | 27852 ft | 402 kts | 26° |
| 2026-05-06 16:41 | -37.77111 | -61.30869 | 28108 ft | 406 kts | 26° |
| 2026-05-06 16:41 | -37.74776 | -61.28823 | 28376 ft | 410 kts | 26° |
| 2026-05-06 16:41 | -37.72418 | -61.26752 | 28639 ft | 414 kts | 26° |
| 2026-05-06 16:42 | -37.70042 | -61.24664 | 28909 ft | 418 kts | 26° |
| 2026-05-06 16:42 | -37.67647 | -61.22558 | 29179 ft | 422 kts | 26° |
| 2026-05-06 16:42 | -37.65227 | -61.20430 | 29457 ft | 425 kts | 26° |
| 2026-05-06 16:42 | -37.62789 | -61.18289 | 29734 ft | 429 kts | 26° |
| 2026-05-06 16:43 | -37.60330 | -61.16128 | 29988 ft | 432 kts | 26° |
| 2026-05-06 16:43 | -37.57883 | -61.13984 | 30218 ft | 435 kts | 26° |
| 2026-05-06 16:43 | -37.55387 | -61.11800 | 30452 ft | 438 kts | 27° |
| 2026-05-06 16:43 | -37.52881 | -61.09603 | 30705 ft | 441 kts | 27° |
| 2026-05-06 16:44 | -37.50357 | -61.07392 | 30934 ft | 443 kts | 26° |
| 2026-05-06 16:44 | -37.47816 | -61.05173 | 31174 ft | 445 kts | 26° |
| 2026-05-06 16:44 | -37.45262 | -61.02949 | 31425 ft | 447 kts | 26° |
| 2026-05-06 16:44 | -37.42700 | -61.00717 | 31674 ft | 450 kts | 26° |
| 2026-05-06 16:45 | -37.40121 | -60.98473 | 31926 ft | 452 kts | 26° |
| 2026-05-06 16:45 | -37.37531 | -60.96221 | 32179 ft | 454 kts | 26° |
| 2026-05-06 16:45 | -37.34927 | -60.93960 | 32433 ft | 456 kts | 26° |
| 2026-05-06 16:45 | -37.32317 | -60.91699 | 32687 ft | 457 kts | 26° |
| 2026-05-06 16:46 | -37.29681 | -60.89418 | 32797 ft | 463 kts | 26° |
| 2026-05-06 16:46 | -37.24327 | -60.84790 | 32805 ft | 469 kts | 27° |
| 2026-05-06 16:47 | -37.18954 | -60.80135 | 32806 ft | 470 kts | 27° |
| 2026-05-06 16:47 | -37.13608 | -60.75507 | 32807 ft | 470 kts | 27° |
| 2026-05-06 16:48 | -37.08222 | -60.70853 | 32810 ft | 470 kts | 27° |
| 2026-05-06 16:48 | -37.02825 | -60.66215 | 32798 ft | 470 kts | 27° |
| 2026-05-06 16:49 | -36.97428 | -60.61592 | 32801 ft | 471 kts | 27° |
| 2026-05-06 16:49 | -36.92026 | -60.56957 | 32797 ft | 471 kts | 27° |
| 2026-05-06 16:50 | -36.86627 | -60.52335 | 32791 ft | 470 kts | 27° |
| 2026-05-06 16:50 | -36.81231 | -60.47724 | 32792 ft | 471 kts | 27° |
| 2026-05-06 16:51 | -36.75824 | -60.43114 | 32790 ft | 471 kts | 27° |
| 2026-05-06 16:51 | -36.70413 | -60.38504 | 32786 ft | 471 kts | 27° |
| 2026-05-06 16:52 | -36.64992 | -60.33896 | 32784 ft | 472 kts | 27° |
| 2026-05-06 16:52 | -36.59607 | -60.29322 | 32785 ft | 472 kts | 27° |
| 2026-05-06 16:53 | -36.54176 | -60.24722 | 32783 ft | 472 kts | 27° |
| 2026-05-06 16:53 | -36.48739 | -60.20133 | 32783 ft | 472 kts | 27° |
| 2026-05-06 16:54 | -36.43296 | -60.15563 | 32786 ft | 472 kts | 27° |
| 2026-05-06 16:54 | -36.37846 | -60.11013 | 32780 ft | 472 kts | 27° |
| 2026-05-06 16:55 | -36.33318 | -60.07235 | 32789 ft | 472 kts | 28° |
| 2026-05-06 16:55 | -36.27805 | -60.02640 | 32804 ft | 484 kts | 28° |
| 2026-05-06 16:56 | -36.22209 | -59.97975 | 32802 ft | 486 kts | 28° |
| 2026-05-06 16:56 | -36.16587 | -59.93281 | 32801 ft | 487 kts | 28° |
| 2026-05-06 16:57 | -36.10965 | -59.88611 | 32800 ft | 487 kts | 28° |
| 2026-05-06 16:57 | -36.05333 | -59.83939 | 32799 ft | 487 kts | 28° |
| 2026-05-06 16:58 | -35.99703 | -59.79284 | 32796 ft | 487 kts | 28° |
| 2026-05-06 16:58 | -35.94063 | -59.74625 | 32797 ft | 487 kts | 28° |
| 2026-05-06 16:59 | -35.88430 | -59.69977 | 32793 ft | 487 kts | 28° |
| 2026-05-06 16:59 | -35.82834 | -59.65358 | 32791 ft | 487 kts | 28° |
| 2026-05-06 17:00 | -35.77199 | -59.60732 | 32787 ft | 487 kts | 28° |
| 2026-05-06 17:00 | -35.71561 | -59.56119 | 32784 ft | 486 kts | 28° |
| 2026-05-06 17:01 | -35.65930 | -59.51508 | 32781 ft | 486 kts | 28° |
| 2026-05-06 17:01 | -35.60296 | -59.46904 | 32775 ft | 486 kts | 28° |
| 2026-05-06 17:02 | -35.54669 | -59.42306 | 32771 ft | 486 kts | 28° |
| 2026-05-06 17:02 | -35.49041 | -59.37713 | 32771 ft | 485 kts | 28° |
| 2026-05-06 17:03 | -35.43405 | -59.33172 | 32765 ft | 484 kts | 27° |
| 2026-05-06 17:03 | -35.37664 | -59.28872 | 32760 ft | 483 kts | 25° |
| 2026-05-06 17:04 | -35.31882 | -59.24678 | 32755 ft | 483 kts | 25° |
| 2026-05-06 17:04 | -35.26155 | -59.20466 | 32752 ft | 484 kts | 26° |
| 2026-05-06 17:05 | -35.20571 | -59.15822 | 32749 ft | 492 kts | 37° |
| 2026-05-06 17:05 | -35.16122 | -59.09374 | 32753 ft | 500 kts | 50° |
| 2026-05-06 17:06 | -35.12013 | -59.02508 | 32751 ft | 501 kts | 50° |
| 2026-05-06 17:06 | -35.07886 | -58.95646 | 32752 ft | 502 kts | 49° |
| 2026-05-06 17:07 | -35.03749 | -58.88782 | 32754 ft | 502 kts | 49° |
| 2026-05-06 17:07 | -34.99602 | -58.81911 | 32763 ft | 503 kts | 49° |
| 2026-05-06 17:08 | -34.95652 | -58.75367 | 32774 ft | 504 kts | 49° |
| 2026-05-06 17:08 | -34.91493 | -58.68491 | 32777 ft | 504 kts | 49° |
| 2026-05-06 17:09 | -34.88126 | -58.62943 | 32787 ft | 505 kts | 49° |
| 2026-05-06 17:09 | -34.84142 | -58.55887 | 32782 ft | 511 kts | 59° |
| 2026-05-06 17:10 | -34.81826 | -58.47676 | 32783 ft | 518 kts | 79° |
| 2026-05-06 17:10 | -34.80934 | -58.38947 | 32541 ft | 522 kts | 82° |
| 2026-05-06 17:10 | -34.80490 | -58.34595 | 32242 ft | 518 kts | 81° |
| 2026-05-06 17:11 | -34.80035 | -58.30246 | 31985 ft | 518 kts | 81° |
| 2026-05-06 17:11 | -34.79571 | -58.25909 | 31728 ft | 517 kts | 81° |
| 2026-05-06 17:11 | -34.79106 | -58.21568 | 31455 ft | 518 kts | 81° |
| 2026-05-06 17:11 | -34.78643 | -58.17217 | 30740 ft | 520 kts | 81° |
| 2026-05-06 17:12 | -34.78184 | -58.12855 | 30074 ft | 519 kts | 81° |
| 2026-05-06 17:12 | -34.77729 | -58.08496 | 29317 ft | 519 kts | 81° |
| 2026-05-06 17:12 | -34.77278 | -58.04146 | 28645 ft | 519 kts | 81° |
| 2026-05-06 17:12 | -34.76825 | -57.99797 | 27965 ft | 517 kts | 81° |
| 2026-05-06 17:13 | -34.76372 | -57.95476 | 27298 ft | 513 kts | 81° |
| 2026-05-06 17:13 | -34.75922 | -57.91243 | 26651 ft | 510 kts | 81° |
| 2026-05-06 17:13 | -34.75470 | -57.87007 | 26218 ft | 501 kts | 81° |
| 2026-05-06 17:13 | -34.75021 | -57.82831 | 25699 ft | 495 kts | 81° |
| 2026-05-06 17:14 | -34.74574 | -57.78700 | 25168 ft | 490 kts | 81° |
| 2026-05-06 17:14 | -34.74128 | -57.74611 | 24628 ft | 486 kts | 80° |
| 2026-05-06 17:14 | -34.73685 | -57.70555 | 24090 ft | 482 kts | 80° |
| 2026-05-06 17:14 | -34.73246 | -57.66539 | 23557 ft | 478 kts | 80° |
| 2026-05-06 17:15 | -34.72810 | -57.62558 | 22957 ft | 474 kts | 80° |
| 2026-05-06 17:15 | -34.72377 | -57.58606 | 22369 ft | 469 kts | 80° |
| 2026-05-06 17:15 | -34.71945 | -57.54685 | 21784 ft | 465 kts | 80° |
| 2026-05-06 17:15 | -34.71748 | -57.50784 | 21214 ft | 462 kts | 90° |
| 2026-05-06 17:16 | -34.72014 | -57.46910 | 20649 ft | 459 kts | 95° |
| 2026-05-06 17:16 | -34.72344 | -57.43068 | 20087 ft | 455 kts | 95° |
| 2026-05-06 17:16 | -34.72668 | -57.39256 | 19534 ft | 451 kts | 95° |
| 2026-05-06 17:16 | -34.72985 | -57.35475 | 18912 ft | 450 kts | 95° |
| 2026-05-06 17:17 | -34.73299 | -57.31705 | 18411 ft | 446 kts | 95° |
| 2026-05-06 17:17 | -34.73603 | -57.28020 | 17895 ft | 442 kts | 95° |
| 2026-05-06 17:17 | -34.73909 | -57.24317 | 17393 ft | 438 kts | 95° |
| 2026-05-06 17:17 | -34.74209 | -57.20639 | 16904 ft | 435 kts | 95° |
| 2026-05-06 17:18 | -34.74507 | -57.17005 | 16407 ft | 431 kts | 95° |
| 2026-05-06 17:18 | -34.74803 | -57.13386 | 15918 ft | 428 kts | 95° |
| 2026-05-06 17:18 | -34.75096 | -57.09805 | 15413 ft | 424 kts | 95° |
| 2026-05-06 17:18 | -34.75386 | -57.06247 | 14916 ft | 421 kts | 94° |
| 2026-05-06 17:19 | -34.75671 | -57.02716 | 14415 ft | 418 kts | 94° |
| 2026-05-06 17:19 | -34.75953 | -56.99214 | 13936 ft | 415 kts | 94° |
| 2026-05-06 17:19 | -34.76233 | -56.95735 | 13427 ft | 412 kts | 94° |
| 2026-05-06 17:19 | -34.76511 | -56.92283 | 12896 ft | 409 kts | 94° |
| 2026-05-06 17:20 | -34.76787 | -56.88855 | 12374 ft | 406 kts | 94° |
| 2026-05-06 17:20 | -34.77058 | -56.85452 | 11854 ft | 403 kts | 94° |
| 2026-05-06 17:20 | -34.77326 | -56.82072 | 11350 ft | 400 kts | 94° |
| 2026-05-06 17:20 | -34.77590 | -56.78715 | 10846 ft | 397 kts | 94° |
| 2026-05-06 17:21 | -34.77849 | -56.75389 | 10348 ft | 394 kts | 94° |
| 2026-05-06 17:21 | -34.78024 | -56.73199 | 10028 ft | 391 kts | 95° |
| 2026-05-06 17:21 | -34.78193 | -56.71890 | 9837 ft | 391 kts | 101° |
| 2026-05-06 17:21 | -34.79015 | -56.68755 | 9309 ft | 388 kts | 110° |
| 2026-05-06 17:22 | -34.79961 | -56.65740 | 8866 ft | 383 kts | 110° |
| 2026-05-06 17:22 | -34.80903 | -56.62740 | 8513 ft | 376 kts | 110° |
| 2026-05-06 17:22 | -34.81821 | -56.59807 | 8183 ft | 368 kts | 110° |
| 2026-05-06 17:22 | -34.82719 | -56.56921 | 7864 ft | 360 kts | 109° |
| 2026-05-06 17:23 | -34.83594 | -56.54093 | 7534 ft | 354 kts | 109° |
| 2026-05-06 17:23 | -34.84451 | -56.51324 | 7235 ft | 347 kts | 109° |
| 2026-05-06 17:23 | -34.85295 | -56.48598 | 6919 ft | 341 kts | 109° |
| 2026-05-06 17:23 | -34.86124 | -56.45925 | 6621 ft | 335 kts | 109° |
| 2026-05-06 17:24 | -34.86943 | -56.43287 | 6313 ft | 330 kts | 109° |
| 2026-05-06 17:24 | -34.87746 | -56.40701 | 5996 ft | 325 kts | 109° |
| 2026-05-06 17:24 | -34.88538 | -56.38146 | 5670 ft | 320 kts | 109° |
| 2026-05-06 17:24 | -34.89316 | -56.35628 | 5352 ft | 315 kts | 109° |
| 2026-05-06 17:25 | -34.90078 | -56.33153 | 5037 ft | 310 kts | 109° |
| 2026-05-06 17:25 | -34.90827 | -56.30715 | 4726 ft | 301 kts | 108° |
| 2026-05-06 17:25 | -34.91541 | -56.28408 | 4417 ft | 282 kts | 107° |
| 2026-05-06 17:25 | -34.92225 | -56.26196 | 4100 ft | 278 kts | 106° |
| 2026-05-06 17:26 | -34.92894 | -56.24024 | 3761 ft | 277 kts | 106° |
| 2026-05-06 17:26 | -34.93558 | -56.21798 | 3430 ft | 273 kts | 101° |
| 2026-05-06 17:26 | -34.93622 | -56.19663 | 3125 ft | 241 kts | 68° |
| 2026-05-06 17:26 | -34.92905 | -56.17976 | 2832 ft | 214 kts | 46° |
| 2026-05-06 17:27 | -34.92055 | -56.16583 | 2591 ft | 195 kts | 47° |
| 2026-05-06 17:27 | -34.91286 | -56.15309 | 2346 ft | 179 kts | 47° |
| 2026-05-06 17:27 | -34.90568 | -56.14122 | 2118 ft | 171 kts | 48° |
| 2026-05-06 17:27 | -34.89863 | -56.12962 | 1921 ft | 169 kts | 48° |
| 2026-05-06 17:28 | -34.89176 | -56.11828 | 1703 ft | 162 kts | 48° |
| 2026-05-06 17:28 | -34.88546 | -56.10790 | 1508 ft | 144 kts | 49° |
| 2026-05-06 17:28 | -34.87961 | -56.09834 | 1319 ft | 139 kts | 51° |
| 2026-05-06 17:28 | -34.87387 | -56.08897 | 1129 ft | 137 kts | 51° |
| 2026-05-06 17:29 | -34.86816 | -56.07977 | 969 ft | 135 kts | 50° |
| 2026-05-06 17:29 | -34.86232 | -56.07076 | 766 ft | 137 kts | 52° |
| 2026-05-06 17:29 | -34.85681 | -56.06141 | 583 ft | 135 kts | 53° |
| 2026-05-06 17:29 | -34.85143 | -56.05222 | 395 ft | 132 kts | 49° |
| 2026-05-06 17:30 | -34.84593 | -56.04326 | 242 ft | 132 kts | 48° |
| 2026-05-06 17:30 | -34.84050 | -56.03430 | 109 ft | 131 kts | 50° |
| 2026-05-06 17:30 | -34.83548 | -56.02606 | 87 ft | 108 kts | 50° |
| 2026-05-06 17:30 | -34.83283 | -56.02185 | 86 ft | 22 kts | 53° |
| 2026-05-06 17:31 | -34.83207 | -56.02032 | 85 ft | 20 kts | 85° |
| 2026-05-06 17:31 | -34.83292 | -56.01918 | 85 ft | 19 kts | 143° |
| 2026-05-06 17:31 | -34.83392 | -56.01819 | 85 ft | 18 kts | 139° |
| 2026-05-06 17:31 | -34.83473 | -56.01711 | 84 ft | 14 kts | 129° |
| 2026-05-06 17:32 | -34.83533 | -56.01655 | 86 ft | 0 kts | 144° |